Aérodrome :
LOGIN :

S'inscrire | Disclaimer

   EN    FR    IT 

 










Légende :    VFR   VFR Marginal   IFR   IFR Intensif   IFR Très Intensif
Visi : 
Plafond : 
>= 8 km
>= 3000ft
5 à 8 km
1000 à 3000 ft
1500m à 5 km
500 à 1000 ft
800 à 1500m
200 à 500 ft
< 800m
< 200 ft
Symboles :   Orages  Brouillard  Fortes neiges  Fortes précipitations  Vent > 20 kt
SIGMETs :   Divers  Orages  Givrage  Turbulence  Onde Orograph.  Cendres Volcan.






- Altitude de l'aérodrome : 17 ft
- Code IATA : GRQ


EHGG - Groningen Eelde

DERNIER METAR :
  • 242325Z AUTO 29007KT 240V320 9999 OVC012 13/11 Q1029

METARs EXPIRÉS :
  • 242255Z AUTO 28007KT 250V310 9999 BKN013 OVC015 13/11 Q1029
  • 242225Z AUTO 27006KT 240V310 9999 OVC014 13/11 Q1029
  • 242155Z AUTO 26005KT 230V300 9999 BKN014 BKN017 OVC042 13/11 Q1029
  • 242125Z AUTO 26004KT 240V310 9999 SCT042 12/10 Q1028
  • 242055Z AUTO 27005KT 9999 NSC 12/10 Q1028

TAF TAF EHGG
Valide du 25 à 00h jusqu'au 26 à 06h UTC


242302Z 2500/2606 28006KT 9999 BKN014 BKN040
PROB40 2500/2506 6000 BKN006
BECMG 2505/2507 33012KT BKN020
BECMG 2517/2520 VRB03KT
BECMG 2522/2524 5000 BR MIFG
PROB40
TEMPO 2600/2605 0800 FG



MET'MAP, la Météo Aéronautique d'un coup d'oeil ! - Copyright ORBIFLY Décembre 2007 - Disclaimer

ORBIFLY MET'MAP TEAM :

Programmation & Développement : Alexandra Zaïnal
Sur une idée originale de : Baudouin d'Aumeries
Assistance à la programmation : Marc-Olivier Méhu
Soutien technique & logistique : Manuel Goepfert

Contact : metmap@orbifly.com




SOURCES & CREDITS :

   NOAA